createdAt,value
2023-04-23T00:02:03.118Z,73.58
2023-04-23T00:04:42.445Z,73.68
2023-04-23T00:07:16.542Z,73.50
2023-04-23T00:09:54.161Z,73.62
2023-04-23T00:12:28.031Z,73.56
2023-04-23T00:15:06.156Z,73.40
2023-04-23T00:17:40.354Z,73.46
2023-04-23T00:20:13.988Z,73.45
2023-04-23T00:22:46.360Z,73.41
2023-04-23T00:25:19.170Z,73.45
2023-04-23T00:27:51.495Z,74.33
2023-04-23T00:30:24.250Z,74.53
2023-04-23T00:32:59.320Z,73.89
2023-04-23T00:35:32.005Z,74.08
2023-04-23T00:38:05.413Z,74.14
2023-04-23T00:40:38.386Z,73.78
2023-04-23T00:43:11.787Z,73.97
2023-04-23T00:45:45.609Z,73.99
2023-04-23T00:48:18.416Z,73.79
2023-04-23T00:50:51.700Z,74.10
2023-04-23T00:53:23.901Z,74.62
2023-04-23T00:55:56.453Z,75.04
2023-04-23T00:58:29.047Z,74.62
2023-04-23T01:01:04.999Z,74.65
2023-04-23T01:03:41.175Z,74.53
2023-04-23T01:06:14.519Z,74.80
2023-04-23T01:08:48.463Z,74.92
2023-04-23T01:11:23.003Z,74.95
2023-04-23T01:13:55.825Z,75.18
2023-04-23T01:16:29.743Z,75.14
2023-04-23T01:19:02.470Z,75.16
2023-04-23T01:21:38.022Z,74.12
2023-04-23T01:24:11.303Z,74.54
2023-04-23T01:26:45.231Z,74.72
2023-04-23T01:29:18.407Z,75.05
2023-04-23T01:31:52.412Z,75.17
2023-04-23T01:34:25.280Z,75.45
2023-04-23T01:36:59.032Z,75.48
2023-04-23T01:39:32.048Z,75.43
2023-04-23T01:42:08.562Z,75.46
2023-04-23T01:44:41.206Z,75.30
2023-04-23T01:47:14.938Z,75.55
2023-04-23T01:49:47.241Z,75.55
2023-04-23T01:52:20.251Z,75.59
2023-04-23T01:54:52.785Z,75.81
2023-04-23T01:57:27.200Z,75.67
2023-04-23T02:00:08.393Z,75.57
2023-04-23T02:02:47.731Z,75.74
2023-04-23T02:05:22.966Z,75.91
2023-04-23T02:07:55.418Z,75.89
2023-04-23T02:10:27.731Z,75.96
2023-04-23T02:13:00.797Z,75.90
2023-04-23T02:15:38.184Z,75.97
2023-04-23T02:18:11.348Z,75.93
2023-04-23T02:20:45.338Z,76.19
2023-04-23T02:23:18.102Z,76.29
2023-04-23T02:25:51.434Z,76.47
2023-04-23T02:28:24.040Z,76.53
2023-04-23T02:30:56.464Z,76.69
2023-04-23T02:33:28.987Z,76.91
2023-04-23T02:36:02.190Z,77.06
2023-04-23T02:38:34.919Z,77.19
2023-04-23T02:41:07.973Z,76.96
2023-04-23T02:43:42.279Z,77.28
2023-04-23T02:46:15.257Z,77.17
2023-04-23T02:48:47.555Z,77.22
2023-04-23T02:51:20.035Z,77.26
2023-04-23T02:53:52.917Z,77.59
2023-04-23T02:56:26.816Z,77.73
2023-04-23T02:58:59.728Z,77.68
2023-04-23T03:01:32.373Z,77.51
2023-04-23T03:04:05.838Z,77.47
2023-04-23T03:06:38.593Z,77.55
2023-04-23T03:09:12.302Z,77.66
2023-04-23T03:11:44.893Z,77.52
2023-04-23T03:14:19.350Z,77.79
2023-04-23T03:16:52.234Z,77.90
2023-04-23T03:19:27.677Z,78.25
2023-04-23T03:22:01.087Z,78.17
2023-04-23T03:24:34.198Z,78.15
2023-04-23T03:27:08.457Z,78.24
2023-04-23T03:29:44.529Z,78.24
2023-04-23T03:32:17.067Z,78.43
2023-04-23T03:34:49.445Z,78.53
2023-04-23T03:37:22.973Z,78.37
2023-04-23T03:39:55.910Z,78.55
2023-04-23T03:42:28.662Z,78.45
2023-04-23T03:45:02.211Z,78.67
2023-04-23T03:47:37.972Z,78.43
2023-04-23T03:50:14.683Z,78.37
2023-04-23T03:52:48.087Z,78.52
2023-04-23T03:55:26.889Z,78.43
2023-04-23T03:58:01.866Z,78.55
2023-04-23T04:00:47.485Z,78.46
2023-04-23T04:03:20.292Z,78.33
2023-04-23T04:05:53.608Z,78.17
2023-04-23T04:08:26.845Z,78.19
2023-04-23T04:11:00.390Z,78.00
2023-04-23T04:13:32.993Z,78.11
2023-04-23T04:16:06.034Z,77.96
2023-04-23T04:18:39.519Z,77.53
2023-04-23T04:21:12.704Z,77.55
2023-04-23T04:23:45.657Z,76.91
2023-04-23T04:26:20.931Z,75.37
2023-04-23T04:28:53.621Z,74.44
2023-04-23T04:31:28.836Z,71.44
2023-04-23T04:34:01.956Z,68.91
2023-04-23T04:36:38.255Z,68.83
2023-04-23T04:39:13.750Z,67.34
2023-04-23T04:41:50.491Z,66.13
2023-04-23T04:44:26.690Z,63.62
2023-04-23T04:46:59.409Z,59.78
2023-04-23T04:49:32.376Z,58.55
2023-04-23T04:52:10.828Z,54.19
2023-04-23T04:54:43.380Z,51.09
2023-04-23T04:57:17.163Z,49.40
2023-04-23T04:59:50.448Z,46.97
2023-04-23T05:02:23.897Z,44.68
2023-04-23T05:04:56.491Z,42.60
2023-04-23T05:07:31.962Z,39.69
2023-04-23T05:10:04.240Z,38.30
2023-04-23T05:12:42.004Z,39.30
2023-04-23T05:15:15.621Z,38.71
2023-04-23T05:17:46.380Z,36.30
2023-04-23T05:20:19.164Z,39.37
2023-04-23T05:23:00.026Z,39.21
2023-04-23T05:25:34.680Z,37.11
2023-04-23T05:28:10.024Z,35.99
2023-04-23T05:30:44.020Z,35.17
2023-04-23T05:33:21.275Z,34.94
2023-04-23T05:35:55.700Z,33.63
2023-04-23T05:38:28.130Z,34.38
2023-04-23T05:41:00.570Z,34.43
2023-04-23T05:43:33.757Z,34.83
2023-04-23T05:46:07.793Z,35.77
2023-04-23T05:48:43.389Z,37.53
2023-04-23T05:51:16.023Z,38.93
2023-04-23T05:53:48.654Z,39.99
2023-04-23T05:56:21.277Z,41.35
2023-04-23T05:58:54.746Z,39.58
2023-04-23T06:01:27.257Z,39.58
2023-04-23T06:04:00.590Z,39.34
2023-04-23T06:06:36.010Z,40.51
2023-04-23T06:09:09.482Z,41.21
2023-04-23T06:11:42.146Z,41.99
2023-04-23T06:14:15.285Z,43.37
2023-04-23T06:16:53.621Z,43.97
2023-04-23T06:19:27.563Z,45.01
2023-04-23T06:22:00.385Z,46.06
2023-04-23T06:24:33.120Z,46.19
2023-04-23T06:27:05.810Z,46.72
2023-04-23T06:29:41.902Z,47.52
2023-04-23T06:32:17.278Z,47.32
2023-04-23T06:35:00.960Z,47.34
2023-04-23T06:37:39.477Z,46.79
2023-04-23T06:40:14.316Z,46.32
2023-04-23T06:42:48.191Z,43.82
2023-04-23T06:45:21.225Z,41.35
2023-04-23T06:47:53.877Z,39.51
2023-04-23T06:50:26.637Z,37.45
2023-04-23T06:53:00.903Z,37.07
2023-04-23T06:55:38.567Z,37.03
2023-04-23T06:58:12.750Z,36.90
2023-04-23T07:00:48.287Z,37.19
2023-04-23T07:03:22.041Z,37.47
2023-04-23T07:05:54.830Z,37.24
2023-04-23T07:08:27.508Z,37.77
2023-04-23T07:11:00.286Z,36.96
2023-04-23T07:13:33.817Z,35.51
2023-04-23T07:16:06.770Z,33.92
2023-04-23T07:18:40.684Z,34.50
2023-04-23T07:21:13.302Z,33.76
2023-04-23T07:23:46.185Z,34.35
2023-04-23T07:26:18.853Z,34.34
2023-04-23T07:28:53.000Z,34.77
2023-04-23T07:31:26.862Z,34.79
2023-04-23T07:33:59.313Z,34.78
2023-04-23T07:36:34.175Z,34.68
2023-04-23T07:39:07.777Z,35.37
2023-04-23T07:41:44.462Z,35.69
2023-04-23T07:44:16.980Z,36.91
2023-04-23T07:46:49.922Z,36.82
2023-04-23T07:49:25.869Z,35.93
2023-04-23T07:51:58.538Z,36.16
2023-04-23T07:54:30.947Z,35.49
2023-04-23T07:57:04.443Z,34.56
2023-04-23T07:59:36.724Z,34.30
2023-04-23T08:02:12.565Z,33.70
2023-04-23T08:04:45.201Z,33.33
2023-04-23T08:07:18.103Z,33.36
2023-04-23T08:09:50.586Z,32.80
2023-04-23T08:12:27.297Z,32.85
2023-04-23T08:14:59.734Z,32.16
2023-04-23T08:17:36.573Z,32.67
2023-04-23T08:20:11.673Z,32.77
2023-04-23T08:22:46.956Z,32.13
2023-04-23T08:25:19.693Z,32.19
2023-04-23T08:27:52.814Z,31.93
2023-04-23T08:30:25.229Z,31.80
2023-04-23T08:32:58.503Z,31.38
2023-04-23T08:35:32.380Z,31.40
2023-04-23T08:38:07.233Z,31.24
2023-04-23T08:40:43.747Z,30.84
2023-04-23T08:43:21.176Z,30.37
2023-04-23T08:45:54.582Z,29.37
2023-04-23T08:48:28.551Z,29.12
2023-04-23T08:51:06.656Z,28.71
2023-04-23T08:53:45.297Z,28.08
2023-04-23T08:56:18.101Z,28.06
2023-04-23T08:58:51.512Z,28.08
2023-04-23T09:01:26.459Z,28.26
2023-04-23T09:04:00.229Z,28.53
2023-04-23T09:06:34.141Z,28.67
2023-04-23T09:09:08.129Z,28.68
2023-04-23T09:11:42.409Z,28.55
2023-04-23T09:14:15.951Z,28.98
2023-04-23T09:16:49.275Z,29.09
2023-04-23T09:19:22.045Z,29.25
2023-04-23T09:21:59.436Z,30.12
2023-04-23T09:24:31.779Z,29.00
2023-04-23T09:27:04.509Z,27.99
2023-04-23T09:29:36.890Z,28.72
2023-04-23T09:32:11.598Z,28.78
2023-04-23T09:34:47.314Z,28.40
2023-04-23T09:37:21.424Z,28.66
2023-04-23T09:39:57.082Z,28.25
2023-04-23T09:42:31.514Z,28.64
2023-04-23T09:45:07.526Z,28.25
2023-04-23T09:47:49.706Z,28.27
2023-04-23T09:50:32.678Z,28.79
2023-04-23T09:53:06.375Z,29.11
2023-04-23T09:55:46.955Z,28.74
2023-04-23T09:58:29.077Z,28.56
2023-04-23T10:01:09.787Z,28.18
2023-04-23T10:03:46.833Z,28.92
2023-04-23T10:06:39.480Z,27.92
2023-04-23T10:09:12.224Z,28.40
2023-04-23T10:11:46.011Z,28.08
2023-04-23T10:14:18.333Z,28.00
2023-04-23T10:16:53.729Z,28.21
2023-04-23T10:19:27.681Z,28.52
2023-04-23T10:22:18.438Z,28.28
2023-04-23T10:24:58.797Z,27.75
2023-04-23T10:27:44.536Z,27.77
2023-04-23T10:30:24.717Z,28.59
2023-04-23T10:32:58.488Z,27.82
2023-04-23T10:35:32.533Z,26.10
2023-04-23T10:38:10.358Z,27.11
2023-04-23T10:40:46.771Z,27.28
2023-04-23T10:43:22.205Z,27.36
2023-04-23T10:45:54.816Z,26.74
2023-04-23T10:48:29.097Z,28.54
2023-04-23T10:51:30.579Z,27.50
2023-04-23T10:53:58.500Z,27.75
2023-04-23T10:56:35.170Z,26.23
2023-04-23T10:59:09.792Z,26.60
2023-04-23T11:01:45.033Z,26.49
2023-04-23T11:04:29.224Z,26.67
2023-04-23T11:07:10.957Z,27.43
2023-04-23T11:09:47.931Z,26.80
2023-04-23T11:15:34.865Z,27.37
2023-04-23T11:18:07.808Z,27.06
2023-04-23T11:20:43.785Z,26.53
2023-04-23T11:23:33.759Z,26.22
2023-04-23T11:26:09.145Z,26.23
2023-04-23T11:28:44.708Z,26.09
2023-04-23T11:31:17.960Z,26.48
2023-04-23T11:33:48.863Z,27.72
2023-04-23T11:36:21.335Z,25.75
2023-04-23T11:39:03.220Z,25.86
2023-04-23T11:41:37.935Z,26.89
2023-04-23T11:44:11.999Z,26.60
2023-04-23T11:46:52.490Z,26.39
2023-04-23T11:49:26.261Z,26.13
2023-04-23T11:52:06.432Z,26.26
2023-04-23T11:54:45.528Z,26.66
2023-04-23T11:57:18.013Z,25.67
2023-04-23T11:59:50.944Z,26.60
2023-04-23T12:02:30.031Z,26.11
2023-04-23T12:05:10.252Z,25.31
2023-04-23T12:07:45.179Z,25.82
2023-04-23T12:10:23.319Z,25.04
2023-04-23T12:12:55.993Z,25.41
2023-04-23T12:15:29.798Z,26.69
2023-04-23T12:18:13.302Z,25.63
2023-04-23T12:20:46.284Z,25.95
2023-04-23T12:23:19.458Z,25.63
2023-04-23T12:25:55.088Z,26.08
2023-04-23T12:28:28.788Z,26.06
2023-04-23T12:31:08.547Z,26.42
2023-04-23T12:33:42.305Z,26.51
2023-04-23T12:36:17.805Z,26.41
2023-04-23T12:38:54.322Z,26.69
2023-04-23T12:41:26.644Z,26.94
2023-04-23T12:44:01.748Z,26.28
2023-04-23T12:46:45.934Z,26.75
2023-04-23T12:49:18.676Z,26.50
2023-04-23T12:51:52.852Z,26.58
2023-04-23T12:54:27.101Z,27.34
2023-04-23T12:57:02.606Z,27.19
2023-04-23T12:59:39.969Z,27.47
2023-04-23T13:02:13.890Z,27.74
2023-04-23T13:04:47.731Z,28.09
2023-04-23T13:07:20.165Z,28.00
2023-04-23T13:09:52.773Z,27.28
2023-04-23T13:12:28.616Z,27.65
2023-04-23T13:15:01.915Z,27.56
2023-04-23T13:17:38.392Z,27.84
2023-04-23T13:20:12.548Z,28.37
2023-04-23T13:22:45.902Z,27.34
2023-04-23T13:25:18.307Z,28.38
2023-04-23T13:27:50.986Z,28.10
2023-04-23T13:30:23.673Z,28.45
2023-04-23T13:32:57.862Z,28.19
2023-04-23T13:35:31.251Z,28.52
2023-04-23T13:38:12.067Z,28.04
2023-04-23T13:40:45.734Z,28.01
2023-04-23T13:43:18.437Z,27.93
2023-04-23T13:45:51.214Z,28.24
2023-04-23T13:48:28.889Z,27.91
2023-04-23T13:51:07.091Z,27.95
2023-04-23T13:53:46.785Z,28.68
2023-04-23T13:56:19.350Z,28.23
2023-04-23T13:58:53.586Z,28.24
2023-04-23T14:01:27.330Z,28.81
2023-04-23T14:03:59.972Z,29.00
2023-04-23T14:06:43.416Z,28.34
2023-04-23T14:09:15.937Z,28.93
2023-04-23T14:11:48.534Z,29.05
2023-04-23T14:14:21.182Z,29.52
2023-04-23T14:16:54.682Z,29.09
2023-04-23T14:19:30.693Z,29.23
2023-04-23T14:22:03.170Z,28.98
2023-04-23T14:24:50.911Z,28.95
2023-04-23T14:27:23.611Z,29.29
2023-04-23T14:30:06.359Z,29.04
2023-04-23T14:32:48.463Z,29.24
2023-04-23T14:35:29.422Z,29.36
2023-04-23T14:38:15.345Z,29.75
2023-04-23T14:40:50.877Z,29.83
2023-04-23T14:43:23.421Z,30.06
2023-04-23T14:45:56.174Z,30.03
2023-04-23T14:48:30.168Z,30.90
2023-04-23T14:51:02.613Z,30.17
2023-04-23T14:53:36.383Z,30.63
2023-04-23T14:56:09.336Z,30.92
2023-04-23T14:58:43.855Z,29.83
2023-04-23T15:01:16.793Z,30.26
2023-04-23T15:03:54.012Z,30.31
2023-04-23T15:06:29.087Z,30.57
2023-04-23T15:09:02.896Z,30.10
2023-04-23T15:11:35.673Z,30.53
2023-04-23T15:14:20.420Z,30.07
2023-04-23T15:16:53.126Z,30.91
2023-04-23T15:19:33.676Z,30.77
2023-04-23T15:22:06.093Z,30.85
2023-04-23T15:24:38.877Z,30.96
2023-04-23T15:27:15.126Z,30.93
2023-04-23T15:29:47.748Z,31.12
2023-04-23T15:32:20.385Z,30.88
2023-04-23T15:34:52.974Z,30.72
2023-04-23T15:37:27.965Z,31.00
2023-04-23T15:40:01.368Z,31.12
2023-04-23T15:42:36.393Z,31.56
2023-04-23T15:45:11.357Z,31.11
2023-04-23T15:47:45.432Z,31.21
2023-04-23T15:50:23.215Z,30.87
2023-04-23T15:52:58.535Z,30.84
2023-04-23T15:55:34.708Z,31.02
2023-04-23T15:58:10.402Z,31.87
2023-04-23T16:00:45.680Z,31.59
2023-04-23T16:03:20.952Z,31.64
2023-04-23T16:05:54.442Z,31.87
2023-04-23T16:08:27.147Z,31.93
2023-04-23T16:10:59.770Z,32.88
2023-04-23T16:13:32.468Z,32.46
2023-04-23T16:16:05.533Z,33.01
2023-04-23T16:18:38.125Z,32.45
2023-04-23T16:21:18.547Z,32.42
2023-04-23T16:23:58.202Z,32.41
2023-04-23T16:26:35.326Z,33.03
2023-04-23T16:29:21.479Z,32.86
2023-04-23T16:31:55.480Z,32.84
2023-04-23T16:34:28.089Z,33.13
2023-04-23T16:37:00.950Z,33.72
2023-04-23T16:39:38.405Z,34.12
2023-04-23T16:42:10.790Z,34.03
2023-04-23T16:44:46.456Z,34.42
2023-04-23T16:47:19.488Z,34.37
2023-04-23T16:49:53.178Z,34.28
2023-04-23T16:52:25.719Z,34.50
2023-04-23T16:54:58.250Z,34.96
2023-04-23T16:57:35.183Z,35.23
2023-04-23T17:00:10.067Z,35.50
2023-04-23T17:02:46.270Z,35.84
2023-04-23T17:05:24.083Z,36.69
2023-04-23T17:07:57.819Z,36.14
2023-04-23T17:10:31.307Z,36.16
2023-04-23T17:13:04.227Z,36.38
2023-04-23T17:15:36.958Z,36.96
2023-04-23T17:18:11.253Z,36.91
2023-04-23T17:20:45.991Z,37.06
2023-04-23T17:23:18.515Z,37.85
2023-04-23T17:25:53.718Z,39.02
2023-04-23T17:28:26.250Z,39.53
2023-04-23T17:30:58.917Z,39.24
2023-04-23T17:33:31.539Z,39.63
2023-04-23T17:36:04.274Z,40.55
2023-04-23T17:38:37.423Z,42.09
2023-04-23T17:41:11.469Z,41.34
2023-04-23T17:43:46.791Z,41.19
2023-04-23T17:46:19.524Z,41.64
2023-04-23T17:48:52.343Z,41.82
2023-04-23T17:51:27.085Z,41.78
2023-04-23T17:54:01.618Z,42.12
2023-04-23T17:56:34.787Z,42.53
2023-04-23T17:59:08.085Z,42.69
2023-04-23T18:01:43.082Z,43.83
2023-04-23T18:04:17.928Z,43.97
2023-04-23T18:06:50.587Z,44.49
2023-04-23T18:09:23.309Z,44.51
2023-04-23T18:11:59.349Z,45.24
2023-04-23T18:14:32.977Z,45.56
2023-04-23T18:17:05.452Z,45.36
2023-04-23T18:19:37.822Z,46.19
2023-04-23T18:22:12.608Z,46.50
2023-04-23T18:24:46.927Z,46.80
2023-04-23T18:27:19.863Z,46.93
2023-04-23T18:29:53.807Z,47.23
2023-04-23T18:32:34.423Z,47.41
2023-04-23T18:35:10.713Z,47.06
2023-04-23T18:37:49.914Z,46.80
2023-04-23T18:40:23.218Z,46.98
2023-04-23T18:42:56.210Z,46.78
2023-04-23T18:45:31.555Z,47.61
2023-04-23T18:48:44.374Z,47.16
2023-04-23T18:51:33.441Z,47.07
2023-04-23T18:54:08.477Z,46.51
2023-04-23T18:56:43.327Z,46.82
2023-04-23T18:59:16.427Z,48.07
2023-04-23T19:01:50.378Z,46.81
2023-04-23T19:04:23.792Z,47.71
2023-04-23T19:06:57.561Z,48.26
2023-04-23T19:09:30.284Z,47.40
2023-04-23T19:12:03.825Z,47.33
2023-04-23T19:14:36.543Z,47.77
2023-04-23T19:17:09.274Z,47.40
2023-04-23T19:19:43.444Z,47.65
2023-04-23T19:22:16.388Z,47.84
2023-04-23T19:24:49.050Z,47.87
2023-04-23T19:27:21.883Z,47.14
2023-04-23T19:29:56.049Z,47.31
2023-04-23T19:32:28.641Z,47.68
2023-04-23T19:35:01.320Z,47.58
2023-04-23T19:37:33.939Z,48.33
2023-04-23T19:40:09.448Z,48.31
2023-04-23T19:42:42.566Z,47.82
2023-04-23T19:45:18.667Z,48.07
2023-04-23T19:47:51.193Z,48.25
2023-04-23T19:50:24.457Z,48.00
2023-04-23T19:52:57.129Z,48.19
2023-04-23T19:55:32.167Z,47.90
2023-04-23T19:58:06.775Z,48.73
2023-04-23T20:00:41.555Z,48.43
2023-04-23T20:03:17.597Z,48.47
2023-04-23T20:05:52.735Z,49.20
2023-04-23T20:08:29.985Z,49.01
2023-04-23T20:11:03.333Z,49.89
2023-04-23T20:13:39.260Z,48.99
2023-04-23T20:16:14.897Z,49.32
2023-04-23T20:18:47.435Z,50.08
2023-04-23T20:21:20.048Z,49.19
2023-04-23T20:23:52.988Z,49.76
2023-04-23T20:26:26.459Z,49.58
2023-04-23T20:29:06.554Z,49.74
2023-04-23T20:31:39.336Z,49.69
2023-04-23T20:34:14.955Z,49.59
2023-04-23T20:36:48.271Z,49.76
2023-04-23T20:39:24.411Z,50.12
2023-04-23T20:41:58.125Z,49.87
2023-04-23T20:44:33.748Z,51.36
2023-04-23T20:47:09.037Z,50.25
2023-04-23T20:49:42.786Z,51.22
2023-04-23T20:52:15.872Z,51.69
2023-04-23T20:54:48.492Z,51.54
2023-04-23T20:57:21.626Z,51.26
2023-04-23T20:59:54.638Z,52.44
2023-04-23T21:02:27.228Z,54.16
2023-04-23T21:05:01.183Z,53.18
2023-04-23T21:07:36.904Z,53.24
2023-04-23T21:10:10.697Z,53.55
2023-04-23T21:12:43.924Z,53.59
2023-04-23T21:15:18.003Z,54.20
2023-04-23T21:17:48.653Z,52.06
2023-04-23T21:20:21.080Z,54.17
2023-04-23T21:22:53.380Z,54.54
2023-04-23T21:25:26.946Z,54.58
2023-04-23T21:27:59.920Z,55.68
2023-04-23T21:30:48.582Z,55.37
2023-04-23T21:33:22.250Z,55.78
2023-04-23T21:35:56.206Z,55.95
2023-04-23T21:38:30.652Z,53.51
2023-04-23T21:41:03.594Z,55.64
2023-04-23T21:43:36.747Z,56.03
2023-04-23T21:46:09.725Z,56.55
2023-04-23T21:48:42.620Z,56.52
2023-04-23T21:51:15.731Z,57.68
2023-04-23T21:53:48.382Z,57.18
2023-04-23T21:56:21.994Z,57.43
2023-04-23T21:58:55.093Z,57.52
2023-04-23T22:01:27.993Z,57.36
2023-04-23T22:04:01.875Z,57.52
2023-04-23T22:06:35.633Z,58.08
2023-04-23T22:09:08.578Z,58.63
2023-04-23T22:11:48.873Z,59.05
2023-04-23T22:14:28.022Z,60.11
2023-04-23T22:17:02.354Z,60.12
2023-04-23T22:19:37.579Z,60.06
2023-04-23T22:22:10.517Z,60.10
2023-04-23T22:24:42.865Z,60.42
2023-04-23T22:27:16.024Z,60.49
2023-04-23T22:29:48.719Z,60.57
2023-04-23T22:32:21.582Z,61.35
2023-04-23T22:34:56.478Z,61.28
2023-04-23T22:37:30.160Z,61.37
2023-04-23T22:40:04.260Z,61.60
2023-04-23T22:42:37.811Z,61.62
2023-04-23T22:45:15.906Z,62.51
2023-04-23T22:47:49.094Z,62.98
2023-04-23T22:50:22.595Z,62.57
2023-04-23T22:52:56.643Z,62.83
2023-04-23T22:55:29.184Z,63.00
2023-04-23T22:58:03.964Z,62.90
2023-04-23T23:00:37.621Z,63.41
2023-04-23T23:03:10.189Z,63.45
2023-04-23T23:05:50.493Z,63.54
2023-04-23T23:08:23.234Z,63.69
2023-04-23T23:10:56.468Z,63.28
2023-04-23T23:13:29.516Z,63.21
2023-04-23T23:16:06.138Z,63.32
2023-04-23T23:18:39.203Z,63.43
2023-04-23T23:21:11.886Z,63.35
2023-04-23T23:23:46.858Z,63.54
2023-04-23T23:26:20.229Z,63.58
2023-04-23T23:28:52.865Z,64.18
2023-04-23T23:31:26.311Z,64.51
2023-04-23T23:33:58.639Z,64.25
2023-04-23T23:36:32.078Z,64.02
2023-04-23T23:39:04.733Z,64.48
2023-04-23T23:41:37.487Z,64.29
2023-04-23T23:44:10.335Z,64.60
2023-04-23T23:46:44.435Z,64.78
2023-04-23T23:49:15.170Z,63.37
2023-04-23T23:51:48.499Z,64.71
2023-04-23T23:54:23.851Z,65.14
2023-04-23T23:56:57.217Z,65.66
2023-04-23T23:59:29.640Z,66.13
